sensor_id;sensor_type;location;lat;lon;timestamp;temperature;humidity
75091;DHT22;63674;48.048;8.306;2023-03-31T00:01:28;7.20;99.90
75091;DHT22;63674;48.048;8.306;2023-03-31T00:03:57;7.10;99.90
75091;DHT22;63674;48.048;8.306;2023-03-31T00:06:32;7.00;99.90
75091;DHT22;63674;48.048;8.306;2023-03-31T00:09:04;7.00;99.90
75091;DHT22;63674;48.048;8.306;2023-03-31T00:11:36;7.00;99.90
75091;DHT22;63674;48.048;8.306;2023-03-31T00:14:06;7.00;99.90
75091;DHT22;63674;48.048;8.306;2023-03-31T00:16:37;7.00;99.90
75091;DHT22;63674;48.048;8.306;2023-03-31T00:19:06;7.00;99.90
75091;DHT22;63674;48.048;8.306;2023-03-31T00:21:43;7.00;99.90
75091;DHT22;63674;48.048;8.306;2023-03-31T00:24:14;7.00;99.90
75091;DHT22;63674;48.048;8.306;2023-03-31T00:26:43;7.00;99.90
75091;DHT22;63674;48.048;8.306;2023-03-31T00:29:12;7.00;99.90
75091;DHT22;63674;48.048;8.306;2023-03-31T00:31:42;7.30;99.90
75091;DHT22;63674;48.048;8.306;2023-03-31T00:34:11;7.40;99.90
75091;DHT22;63674;48.048;8.306;2023-03-31T00:36:39;7.30;99.90
75091;DHT22;63674;48.048;8.306;2023-03-31T00:39:15;7.50;99.90
75091;DHT22;63674;48.048;8.306;2023-03-31T00:41:45;7.50;99.90
75091;DHT22;63674;48.048;8.306;2023-03-31T00:44:15;7.40;99.90
75091;DHT22;63674;48.048;8.306;2023-03-31T00:46:53;7.30;99.90
75091;DHT22;63674;48.048;8.306;2023-03-31T00:49:26;7.40;99.90
75091;DHT22;63674;48.048;8.306;2023-03-31T00:52:00;7.60;99.90
75091;DHT22;63674;48.048;8.306;2023-03-31T00:54:33;7.50;99.90
75091;DHT22;63674;48.048;8.306;2023-03-31T00:57:04;7.60;99.90
75091;DHT22;63674;48.048;8.306;2023-03-31T00:59:37;7.70;99.90
75091;DHT22;63674;48.048;8.306;2023-03-31T01:02:08;7.70;99.90
75091;DHT22;63674;48.048;8.306;2023-03-31T01:04:42;7.80;99.90
75091;DHT22;63674;48.048;8.306;2023-03-31T01:07:16;7.90;99.90
75091;DHT22;63674;48.048;8.306;2023-03-31T01:09:49;8.00;99.90
75091;DHT22;63674;48.048;8.306;2023-03-31T01:12:21;8.00;99.90
75091;DHT22;63674;48.048;8.306;2023-03-31T01:14:50;8.10;99.90
75091;DHT22;63674;48.048;8.306;2023-03-31T01:17:20;8.00;99.90
75091;DHT22;63674;48.048;8.306;2023-03-31T01:19:58;8.00;99.90
75091;DHT22;63674;48.048;8.306;2023-03-31T01:29:25;7.90;99.90
75091;DHT22;63674;48.048;8.306;2023-03-31T01:32:40;7.90;99.90
75091;DHT22;63674;48.048;8.306;2023-03-31T01:36:08;7.80;99.90
75091;DHT22;63674;48.048;8.306;2023-03-31T01:39:18;7.70;99.90
75091;DHT22;63674;48.048;8.306;2023-03-31T01:42:14;7.50;99.90
75091;DHT22;63674;48.048;8.306;2023-03-31T01:44:47;7.40;99.90
75091;DHT22;63674;48.048;8.306;2023-03-31T01:47:26;7.30;99.90
75091;DHT22;63674;48.048;8.306;2023-03-31T01:50:03;7.30;99.90
75091;DHT22;63674;48.048;8.306;2023-03-31T01:52:37;7.20;99.90
75091;DHT22;63674;48.048;8.306;2023-03-31T01:55:13;7.20;99.90
75091;DHT22;63674;48.048;8.306;2023-03-31T01:57:48;7.20;99.90
75091;DHT22;63674;48.048;8.306;2023-03-31T02:00:22;7.20;99.90
75091;DHT22;63674;48.048;8.306;2023-03-31T02:02:59;7.20;99.90
75091;DHT22;63674;48.048;8.306;2023-03-31T02:05:37;7.20;99.90
75091;DHT22;63674;48.048;8.306;2023-03-31T02:08:12;7.20;99.90
75091;DHT22;63674;48.048;8.306;2023-03-31T02:10:44;7.10;99.90
75091;DHT22;63674;48.048;8.306;2023-03-31T02:13:15;7.00;99.90
75091;DHT22;63674;48.048;8.306;2023-03-31T02:15:50;7.00;99.90
75091;DHT22;63674;48.048;8.306;2023-03-31T02:18:22;7.00;99.90
75091;DHT22;63674;48.048;8.306;2023-03-31T02:20:55;7.00;99.90
75091;DHT22;63674;48.048;8.306;2023-03-31T02:23:27;7.00;99.90
75091;DHT22;63674;48.048;8.306;2023-03-31T02:26:01;6.90;99.90
75091;DHT22;63674;48.048;8.306;2023-03-31T02:28:33;7.00;99.90
75091;DHT22;63674;48.048;8.306;2023-03-31T02:31:26;6.90;99.90
75091;DHT22;63674;48.048;8.306;2023-03-31T02:33:56;6.90;99.90
75091;DHT22;63674;48.048;8.306;2023-03-31T02:36:25;6.80;99.90
75091;DHT22;63674;48.048;8.306;2023-03-31T02:38:56;6.80;99.90
75091;DHT22;63674;48.048;8.306;2023-03-31T02:41:27;6.70;99.90
75091;DHT22;63674;48.048;8.306;2023-03-31T02:43:57;6.70;99.90
75091;DHT22;63674;48.048;8.306;2023-03-31T02:46:26;6.70;99.90
75091;DHT22;63674;48.048;8.306;2023-03-31T02:48:58;6.70;99.90
75091;DHT22;63674;48.048;8.306;2023-03-31T02:52:04;6.60;99.90
75091;DHT22;63674;48.048;8.306;2023-03-31T02:55:14;6.60;99.90
75091;DHT22;63674;48.048;8.306;2023-03-31T02:58:04;6.70;99.90
75091;DHT22;63674;48.048;8.306;2023-03-31T03:01:03;6.70;99.90
75091;DHT22;63674;48.048;8.306;2023-03-31T03:03:44;6.60;99.90
75091;DHT22;63674;48.048;8.306;2023-03-31T03:06:33;6.50;99.90
75091;DHT22;63674;48.048;8.306;2023-03-31T03:09:13;6.50;99.90
75091;DHT22;63674;48.048;8.306;2023-03-31T03:11:54;6.40;99.90
75091;DHT22;63674;48.048;8.306;2023-03-31T03:14:33;6.20;99.90
75091;DHT22;63674;48.048;8.306;2023-03-31T03:17:09;6.20;99.90
75091;DHT22;63674;48.048;8.306;2023-03-31T03:19:41;6.10;99.90
75091;DHT22;63674;48.048;8.306;2023-03-31T03:22:10;6.20;99.90
75091;DHT22;63674;48.048;8.306;2023-03-31T03:24:38;6.20;99.90
75091;DHT22;63674;48.048;8.306;2023-03-31T03:27:08;6.10;99.90
75091;DHT22;63674;48.048;8.306;2023-03-31T03:29:36;6.10;99.90
75091;DHT22;63674;48.048;8.306;2023-03-31T03:32:08;6.10;99.90
75091;DHT22;63674;48.048;8.306;2023-03-31T03:34:36;6.00;99.90
75091;DHT22;63674;48.048;8.306;2023-03-31T03:37:05;5.90;99.90
75091;DHT22;63674;48.048;8.306;2023-03-31T03:39:34;5.90;99.90
75091;DHT22;63674;48.048;8.306;2023-03-31T03:42:02;6.00;99.90
75091;DHT22;63674;48.048;8.306;2023-03-31T03:44:31;6.00;99.90
75091;DHT22;63674;48.048;8.306;2023-03-31T03:46:59;6.00;99.90
75091;DHT22;63674;48.048;8.306;2023-03-31T03:49:29;5.90;99.90
75091;DHT22;63674;48.048;8.306;2023-03-31T03:51:57;5.90;99.90
75091;DHT22;63674;48.048;8.306;2023-03-31T03:54:26;5.90;99.90
75091;DHT22;63674;48.048;8.306;2023-03-31T03:56:54;5.90;99.90
75091;DHT22;63674;48.048;8.306;2023-03-31T03:59:23;5.90;99.90
75091;DHT22;63674;48.048;8.306;2023-03-31T04:01:52;5.90;99.90
75091;DHT22;63674;48.048;8.306;2023-03-31T04:04:20;5.90;99.90
75091;DHT22;63674;48.048;8.306;2023-03-31T04:06:50;5.90;99.90
75091;DHT22;63674;48.048;8.306;2023-03-31T04:09:20;6.00;99.90
75091;DHT22;63674;48.048;8.306;2023-03-31T04:11:48;6.00;99.90
75091;DHT22;63674;48.048;8.306;2023-03-31T04:14:17;5.90;99.90
75091;DHT22;63674;48.048;8.306;2023-03-31T04:16:45;6.00;99.90
75091;DHT22;63674;48.048;8.306;2023-03-31T04:19:14;6.00;99.90
75091;DHT22;63674;48.048;8.306;2023-03-31T04:21:44;6.10;99.90
75091;DHT22;63674;48.048;8.306;2023-03-31T04:24:18;6.10;99.90
75091;DHT22;63674;48.048;8.306;2023-03-31T04:26:48;6.10;99.90
75091;DHT22;63674;48.048;8.306;2023-03-31T04:29:19;6.10;99.90
75091;DHT22;63674;48.048;8.306;2023-03-31T04:31:48;6.10;99.90
75091;DHT22;63674;48.048;8.306;2023-03-31T04:34:18;6.00;99.90
75091;DHT22;63674;48.048;8.306;2023-03-31T04:36:48;6.00;99.90
75091;DHT22;63674;48.048;8.306;2023-03-31T04:39:18;6.10;99.90
75091;DHT22;63674;48.048;8.306;2023-03-31T04:41:53;6.20;99.90
75091;DHT22;63674;48.048;8.306;2023-03-31T04:44:22;6.20;99.90
75091;DHT22;63674;48.048;8.306;2023-03-31T04:46:51;6.30;99.90
75091;DHT22;63674;48.048;8.306;2023-03-31T04:49:20;6.40;99.90
75091;DHT22;63674;48.048;8.306;2023-03-31T04:51:49;7.10;99.90
75091;DHT22;63674;48.048;8.306;2023-03-31T04:54:19;7.70;99.90
75091;DHT22;63674;48.048;8.306;2023-03-31T04:56:48;7.90;99.90
75091;DHT22;63674;48.048;8.306;2023-03-31T04:59:16;8.20;99.90
75091;DHT22;63674;48.048;8.306;2023-03-31T05:01:45;8.30;99.90
75091;DHT22;63674;48.048;8.306;2023-03-31T05:04:14;8.20;99.90
75091;DHT22;63674;48.048;8.306;2023-03-31T05:06:42;8.20;99.90
75091;DHT22;63674;48.048;8.306;2023-03-31T05:09:11;8.30;99.90
75091;DHT22;63674;48.048;8.306;2023-03-31T05:11:41;8.30;99.90
75091;DHT22;63674;48.048;8.306;2023-03-31T05:14:10;9.30;99.90
75091;DHT22;63674;48.048;8.306;2023-03-31T05:16:38;8.40;99.90
75091;DHT22;63674;48.048;8.306;2023-03-31T05:19:08;8.40;99.90
75091;DHT22;63674;48.048;8.306;2023-03-31T05:21:36;8.30;99.90
75091;DHT22;63674;48.048;8.306;2023-03-31T05:24:05;8.20;99.90
75091;DHT22;63674;48.048;8.306;2023-03-31T05:26:34;8.30;99.90
75091;DHT22;63674;48.048;8.306;2023-03-31T05:29:04;8.30;99.90
75091;DHT22;63674;48.048;8.306;2023-03-31T05:31:33;8.20;99.90
75091;DHT22;63674;48.048;8.306;2023-03-31T05:34:02;8.20;99.90
75091;DHT22;63674;48.048;8.306;2023-03-31T05:36:30;8.30;99.90
75091;DHT22;63674;48.048;8.306;2023-03-31T05:38:59;8.20;99.90
75091;DHT22;63674;48.048;8.306;2023-03-31T05:41:27;8.20;99.90
75091;DHT22;63674;48.048;8.306;2023-03-31T05:43:56;8.20;99.90
75091;DHT22;63674;48.048;8.306;2023-03-31T05:46:26;8.30;99.90
75091;DHT22;63674;48.048;8.306;2023-03-31T05:48:55;8.30;99.90
75091;DHT22;63674;48.048;8.306;2023-03-31T05:51:24;8.30;99.90
75091;DHT22;63674;48.048;8.306;2023-03-31T05:53:53;8.30;99.90
75091;DHT22;63674;48.048;8.306;2023-03-31T05:56:22;8.30;99.90
75091;DHT22;63674;48.048;8.306;2023-03-31T05:58:50;8.30;99.90
75091;DHT22;63674;48.048;8.306;2023-03-31T06:01:19;8.20;99.90
75091;DHT22;63674;48.048;8.306;2023-03-31T06:03:50;8.20;99.90
75091;DHT22;63674;48.048;8.306;2023-03-31T06:06:18;8.20;99.90
75091;DHT22;63674;48.048;8.306;2023-03-31T06:08:47;8.10;99.90
75091;DHT22;63674;48.048;8.306;2023-03-31T06:11:17;8.10;99.90
75091;DHT22;63674;48.048;8.306;2023-03-31T06:13:47;8.20;99.90
75091;DHT22;63674;48.048;8.306;2023-03-31T06:16:17;8.30;99.90
75091;DHT22;63674;48.048;8.306;2023-03-31T06:18:46;8.60;99.90
75091;DHT22;63674;48.048;8.306;2023-03-31T06:21:18;8.70;99.90
75091;DHT22;63674;48.048;8.306;2023-03-31T06:23:47;9.10;99.90
75091;DHT22;63674;48.048;8.306;2023-03-31T06:26:17;9.10;99.90
75091;DHT22;63674;48.048;8.306;2023-03-31T06:28:46;9.30;99.90
75091;DHT22;63674;48.048;8.306;2023-03-31T06:31:16;9.10;99.90
75091;DHT22;63674;48.048;8.306;2023-03-31T06:33:46;8.40;99.90
75091;DHT22;63674;48.048;8.306;2023-03-31T06:36:18;7.90;99.90
75091;DHT22;63674;48.048;8.306;2023-03-31T06:38:48;7.60;99.90
75091;DHT22;63674;48.048;8.306;2023-03-31T06:41:18;7.30;99.90
75091;DHT22;63674;48.048;8.306;2023-03-31T06:43:48;7.20;99.90
75091;DHT22;63674;48.048;8.306;2023-03-31T06:46:17;7.10;99.90
75091;DHT22;63674;48.048;8.306;2023-03-31T06:48:46;7.10;99.90
75091;DHT22;63674;48.048;8.306;2023-03-31T06:51:15;7.10;99.90
75091;DHT22;63674;48.048;8.306;2023-03-31T06:53:45;7.10;99.90
75091;DHT22;63674;48.048;8.306;2023-03-31T06:56:13;7.10;99.90
75091;DHT22;63674;48.048;8.306;2023-03-31T06:58:42;7.20;99.90
75091;DHT22;63674;48.048;8.306;2023-03-31T07:01:11;7.20;99.90
75091;DHT22;63674;48.048;8.306;2023-03-31T07:03:40;7.30;99.90
75091;DHT22;63674;48.048;8.306;2023-03-31T07:06:09;7.30;99.90
75091;DHT22;63674;48.048;8.306;2023-03-31T07:08:37;7.50;99.90
75091;DHT22;63674;48.048;8.306;2023-03-31T07:11:10;7.60;99.90
75091;DHT22;63674;48.048;8.306;2023-03-31T07:13:39;7.50;99.90
75091;DHT22;63674;48.048;8.306;2023-03-31T07:16:08;7.50;99.90
75091;DHT22;63674;48.048;8.306;2023-03-31T07:18:40;7.40;99.90
75091;DHT22;63674;48.048;8.306;2023-03-31T07:21:08;7.40;99.90
75091;DHT22;63674;48.048;8.306;2023-03-31T07:23:38;7.30;99.90
75091;DHT22;63674;48.048;8.306;2023-03-31T07:26:06;7.30;99.90
75091;DHT22;63674;48.048;8.306;2023-03-31T07:28:36;7.20;99.90
75091;DHT22;63674;48.048;8.306;2023-03-31T07:31:10;7.30;99.90
75091;DHT22;63674;48.048;8.306;2023-03-31T07:33:39;7.40;99.90
75091;DHT22;63674;48.048;8.306;2023-03-31T07:36:09;7.50;99.90
75091;DHT22;63674;48.048;8.306;2023-03-31T07:38:40;7.60;99.90
75091;DHT22;63674;48.048;8.306;2023-03-31T07:41:10;7.80;99.90
75091;DHT22;63674;48.048;8.306;2023-03-31T07:43:41;8.10;99.90
75091;DHT22;63674;48.048;8.306;2023-03-31T07:46:14;8.40;99.90
75091;DHT22;63674;48.048;8.306;2023-03-31T07:48:44;8.70;99.90
75091;DHT22;63674;48.048;8.306;2023-03-31T07:51:14;8.80;99.90
75091;DHT22;63674;48.048;8.306;2023-03-31T07:53:44;8.90;99.90
75091;DHT22;63674;48.048;8.306;2023-03-31T07:56:15;9.10;99.90
75091;DHT22;63674;48.048;8.306;2023-03-31T07:58:45;9.00;99.90
75091;DHT22;63674;48.048;8.306;2023-03-31T08:01:14;8.90;99.90
75091;DHT22;63674;48.048;8.306;2023-03-31T08:03:46;8.90;99.90
75091;DHT22;63674;48.048;8.306;2023-03-31T08:06:17;8.90;99.90
75091;DHT22;63674;48.048;8.306;2023-03-31T08:08:47;8.90;99.90
75091;DHT22;63674;48.048;8.306;2023-03-31T08:11:16;9.00;99.90
75091;DHT22;63674;48.048;8.306;2023-03-31T08:13:48;8.90;99.90
75091;DHT22;63674;48.048;8.306;2023-03-31T08:16:17;8.80;99.90
75091;DHT22;63674;48.048;8.306;2023-03-31T08:18:46;8.90;99.90
75091;DHT22;63674;48.048;8.306;2023-03-31T08:21:14;8.90;99.90
75091;DHT22;63674;48.048;8.306;2023-03-31T08:23:43;9.00;99.90
75091;DHT22;63674;48.048;8.306;2023-03-31T08:26:13;9.10;99.90
75091;DHT22;63674;48.048;8.306;2023-03-31T08:28:44;9.20;99.90
75091;DHT22;63674;48.048;8.306;2023-03-31T08:31:17;9.40;99.90
75091;DHT22;63674;48.048;8.306;2023-03-31T08:33:47;9.30;99.90
75091;DHT22;63674;48.048;8.306;2023-03-31T08:36:15;9.40;99.90
75091;DHT22;63674;48.048;8.306;2023-03-31T08:38:44;9.80;99.90
75091;DHT22;63674;48.048;8.306;2023-03-31T08:41:26;10.20;99.90
75091;DHT22;63674;48.048;8.306;2023-03-31T08:44:12;10.60;99.90
75091;DHT22;63674;48.048;8.306;2023-03-31T08:46:43;10.60;99.90
75091;DHT22;63674;48.048;8.306;2023-03-31T08:49:14;10.70;99.90
75091;DHT22;63674;48.048;8.306;2023-03-31T08:51:48;10.70;99.90
75091;DHT22;63674;48.048;8.306;2023-03-31T08:54:20;10.70;99.90
75091;DHT22;63674;48.048;8.306;2023-03-31T08:56:56;10.60;99.90
75091;DHT22;63674;48.048;8.306;2023-03-31T08:59:29;10.50;99.90
75091;DHT22;63674;48.048;8.306;2023-03-31T09:02:13;10.60;99.90
75091;DHT22;63674;48.048;8.306;2023-03-31T09:08:31;10.60;99.90
75091;DHT22;63674;48.048;8.306;2023-03-31T09:11:09;11.00;99.90
75091;DHT22;63674;48.048;8.306;2023-03-31T09:14:00;11.00;99.90
75091;DHT22;63674;48.048;8.306;2023-03-31T09:16:37;11.10;99.90
75091;DHT22;63674;48.048;8.306;2023-03-31T09:19:17;10.80;99.90
75091;DHT22;63674;48.048;8.306;2023-03-31T09:21:50;10.70;99.90
75091;DHT22;63674;48.048;8.306;2023-03-31T09:24:22;10.60;99.90
75091;DHT22;63674;48.048;8.306;2023-03-31T09:27:00;10.60;99.90
75091;DHT22;63674;48.048;8.306;2023-03-31T09:29:33;11.00;99.90
75091;DHT22;63674;48.048;8.306;2023-03-31T09:32:13;11.10;99.90
75091;DHT22;63674;48.048;8.306;2023-03-31T09:34:46;11.00;99.90
75091;DHT22;63674;48.048;8.306;2023-03-31T09:37:18;10.90;99.90
75091;DHT22;63674;48.048;8.306;2023-03-31T09:39:47;10.60;99.90
75091;DHT22;63674;48.048;8.306;2023-03-31T09:42:15;10.50;99.90
75091;DHT22;63674;48.048;8.306;2023-03-31T09:44:46;10.80;99.90
75091;DHT22;63674;48.048;8.306;2023-03-31T09:47:18;11.10;99.90
75091;DHT22;63674;48.048;8.306;2023-03-31T09:49:50;11.40;99.90
75091;DHT22;63674;48.048;8.306;2023-03-31T09:52:26;11.50;99.90
75091;DHT22;63674;48.048;8.306;2023-03-31T09:54:59;11.60;99.90
75091;DHT22;63674;48.048;8.306;2023-03-31T09:57:31;11.30;99.90
75091;DHT22;63674;48.048;8.306;2023-03-31T10:00:05;11.10;99.90
75091;DHT22;63674;48.048;8.306;2023-03-31T10:02:43;11.20;99.90
75091;DHT22;63674;48.048;8.306;2023-03-31T10:05:27;11.10;99.90
75091;DHT22;63674;48.048;8.306;2023-03-31T10:08:22;11.10;99.90
75091;DHT22;63674;48.048;8.306;2023-03-31T10:10:55;11.10;99.90
75091;DHT22;63674;48.048;8.306;2023-03-31T10:13:26;11.20;99.90
75091;DHT22;63674;48.048;8.306;2023-03-31T10:16:02;11.10;90.10
75091;DHT22;63674;48.048;8.306;2023-03-31T10:18:35;11.10;99.70
75091;DHT22;63674;48.048;8.306;2023-03-31T10:21:21;11.10;99.90
75091;DHT22;63674;48.048;8.306;2023-03-31T10:23:52;11.30;98.50
75091;DHT22;63674;48.048;8.306;2023-03-31T10:26:25;11.50;96.50
75091;DHT22;63674;48.048;8.306;2023-03-31T10:28:54;11.40;96.00
75091;DHT22;63674;48.048;8.306;2023-03-31T10:31:25;11.70;94.30
75091;DHT22;63674;48.048;8.306;2023-03-31T10:33:55;11.50;92.70
75091;DHT22;63674;48.048;8.306;2023-03-31T10:36:27;11.20;89.10
75091;DHT22;63674;48.048;8.306;2023-03-31T10:38:57;11.50;91.00
75091;DHT22;63674;48.048;8.306;2023-03-31T10:41:28;11.60;94.30
75091;DHT22;63674;48.048;8.306;2023-03-31T10:43:58;11.50;90.40
75091;DHT22;63674;48.048;8.306;2023-03-31T10:46:42;11.50;90.90
75091;DHT22;63674;48.048;8.306;2023-03-31T10:49:15;11.70;87.20
75091;DHT22;63674;48.048;8.306;2023-03-31T10:51:54;11.60;86.20
75091;DHT22;63674;48.048;8.306;2023-03-31T10:54:24;11.70;83.80
75091;DHT22;63674;48.048;8.306;2023-03-31T10:56:54;11.90;94.00
75091;DHT22;63674;48.048;8.306;2023-03-31T10:59:40;12.00;91.80
75091;DHT22;63674;48.048;8.306;2023-03-31T11:02:39;12.10;90.90
75091;DHT22;63674;48.048;8.306;2023-03-31T11:05:45;12.00;93.80
75091;DHT22;63674;48.048;8.306;2023-03-31T11:08:32;12.40;85.10
75091;DHT22;63674;48.048;8.306;2023-03-31T11:11:28;12.50;85.00
75091;DHT22;63674;48.048;8.306;2023-03-31T11:14:09;12.60;85.10
75091;DHT22;63674;48.048;8.306;2023-03-31T11:16:46;12.60;93.50
75091;DHT22;63674;48.048;8.306;2023-03-31T11:19:26;12.30;80.10
75091;DHT22;63674;48.048;8.306;2023-03-31T11:22:08;11.90;76.60
75091;DHT22;63674;48.048;8.306;2023-03-31T11:24:57;12.00;79.20
75091;DHT22;63674;48.048;8.306;2023-03-31T11:27:47;12.10;77.60
75091;DHT22;63674;48.048;8.306;2023-03-31T11:30:23;12.30;80.20
75091;DHT22;63674;48.048;8.306;2023-03-31T11:33:05;12.30;82.10
75091;DHT22;63674;48.048;8.306;2023-03-31T11:35:58;12.40;76.60
75091;DHT22;63674;48.048;8.306;2023-03-31T11:38:46;11.90;78.60
75091;DHT22;63674;48.048;8.306;2023-03-31T11:41:31;11.40;85.90
75091;DHT22;63674;48.048;8.306;2023-03-31T11:44:04;11.00;94.00
75091;DHT22;63674;48.048;8.306;2023-03-31T11:46:38;10.90;99.90
75091;DHT22;63674;48.048;8.306;2023-03-31T11:49:15;10.60;99.90
75091;DHT22;63674;48.048;8.306;2023-03-31T11:51:49;10.20;99.90
75091;DHT22;63674;48.048;8.306;2023-03-31T11:54:26;9.70;99.90
75091;DHT22;63674;48.048;8.306;2023-03-31T11:57:01;9.20;99.90
75091;DHT22;63674;48.048;8.306;2023-03-31T11:59:33;8.70;99.90
75091;DHT22;63674;48.048;8.306;2023-03-31T12:02:09;8.80;99.90
75091;DHT22;63674;48.048;8.306;2023-03-31T12:04:45;8.80;99.90
75091;DHT22;63674;48.048;8.306;2023-03-31T12:07:21;8.90;99.90
75091;DHT22;63674;48.048;8.306;2023-03-31T12:09:57;9.00;99.90
75091;DHT22;63674;48.048;8.306;2023-03-31T12:12:35;9.00;99.90
75091;DHT22;63674;48.048;8.306;2023-03-31T12:15:13;8.90;99.90
75091;DHT22;63674;48.048;8.306;2023-03-31T12:17:51;8.70;99.90
75091;DHT22;63674;48.048;8.306;2023-03-31T12:20:29;8.00;99.90
75091;DHT22;63674;48.048;8.306;2023-03-31T12:23:01;7.40;99.90
75091;DHT22;63674;48.048;8.306;2023-03-31T12:25:41;7.40;99.90
75091;DHT22;63674;48.048;8.306;2023-03-31T12:28:14;7.40;99.90
75091;DHT22;63674;48.048;8.306;2023-03-31T12:30:46;7.60;99.90
75091;DHT22;63674;48.048;8.306;2023-03-31T12:33:19;7.80;99.90
75091;DHT22;63674;48.048;8.306;2023-03-31T12:35:58;7.90;99.90
75091;DHT22;63674;48.048;8.306;2023-03-31T12:38:45;8.00;99.90
75091;DHT22;63674;48.048;8.306;2023-03-31T12:41:25;8.30;99.90
75091;DHT22;63674;48.048;8.306;2023-03-31T12:44:13;8.30;99.90
75091;DHT22;63674;48.048;8.306;2023-03-31T12:47:10;8.50;99.90
75091;DHT22;63674;48.048;8.306;2023-03-31T12:49:54;8.80;99.90
75091;DHT22;63674;48.048;8.306;2023-03-31T12:52:36;8.80;99.90
75091;DHT22;63674;48.048;8.306;2023-03-31T12:55:35;9.10;99.90
75091;DHT22;63674;48.048;8.306;2023-03-31T12:58:36;9.60;99.90
75091;DHT22;63674;48.048;8.306;2023-03-31T13:01:13;9.90;99.90
75091;DHT22;63674;48.048;8.306;2023-03-31T13:03:48;10.20;99.90
75091;DHT22;63674;48.048;8.306;2023-03-31T13:09:41;9.90;99.90
75091;DHT22;63674;48.048;8.306;2023-03-31T13:12:17;9.90;99.90
75091;DHT22;63674;48.048;8.306;2023-03-31T13:14:49;10.10;99.90
75091;DHT22;63674;48.048;8.306;2023-03-31T13:17:23;10.50;99.90
75091;DHT22;63674;48.048;8.306;2023-03-31T13:19:55;10.90;99.90
75091;DHT22;63674;48.048;8.306;2023-03-31T13:22:33;10.70;99.90
75091;DHT22;63674;48.048;8.306;2023-03-31T13:28:33;10.60;99.10
75091;DHT22;63674;48.048;8.306;2023-03-31T13:31:07;10.50;99.60
75091;DHT22;63674;48.048;8.306;2023-03-31T13:33:42;10.60;96.70
75091;DHT22;63674;48.048;8.306;2023-03-31T13:36:58;10.30;99.90
75091;DHT22;63674;48.048;8.306;2023-03-31T13:40:07;10.10;99.90
75091;DHT22;63674;48.048;8.306;2023-03-31T13:43:14;9.80;99.90
75091;DHT22;63674;48.048;8.306;2023-03-31T13:46:17;9.50;99.90
75091;DHT22;63674;48.048;8.306;2023-03-31T13:49:03;9.10;99.90
75091;DHT22;63674;48.048;8.306;2023-03-31T13:51:45;8.80;99.90
75091;DHT22;63674;48.048;8.306;2023-03-31T13:57:56;8.50;99.90
75091;DHT22;63674;48.048;8.306;2023-03-31T14:01:19;8.20;99.90
75091;DHT22;63674;48.048;8.306;2023-03-31T14:04:21;7.80;99.90
75091;DHT22;63674;48.048;8.306;2023-03-31T14:06:59;7.40;99.90
75091;DHT22;63674;48.048;8.306;2023-03-31T14:09:34;7.00;99.90
75091;DHT22;63674;48.048;8.306;2023-03-31T14:12:21;6.70;99.90
75091;DHT22;63674;48.048;8.306;2023-03-31T14:14:52;6.60;99.90
75091;DHT22;63674;48.048;8.306;2023-03-31T14:17:22;6.50;99.90
75091;DHT22;63674;48.048;8.306;2023-03-31T14:20:14;6.50;99.90
75091;DHT22;63674;48.048;8.306;2023-03-31T14:23:07;6.40;99.90
75091;DHT22;63674;48.048;8.306;2023-03-31T14:25:47;6.30;99.90
75091;DHT22;63674;48.048;8.306;2023-03-31T14:28:30;6.20;99.90
75091;DHT22;63674;48.048;8.306;2023-03-31T14:31:11;6.20;99.90
75091;DHT22;63674;48.048;8.306;2023-03-31T14:34:03;6.20;99.90
75091;DHT22;63674;48.048;8.306;2023-03-31T14:36:49;6.40;99.90
75091;DHT22;63674;48.048;8.306;2023-03-31T14:39:27;6.50;99.90
75091;DHT22;63674;48.048;8.306;2023-03-31T14:42:01;6.70;99.90
75091;DHT22;63674;48.048;8.306;2023-03-31T14:44:33;7.00;99.90
75091;DHT22;63674;48.048;8.306;2023-03-31T14:47:02;7.10;99.90
75091;DHT22;63674;48.048;8.306;2023-03-31T14:49:34;7.10;99.90
75091;DHT22;63674;48.048;8.306;2023-03-31T14:52:13;7.00;99.90
75091;DHT22;63674;48.048;8.306;2023-03-31T14:54:44;6.90;99.90
75091;DHT22;63674;48.048;8.306;2023-03-31T14:57:17;6.80;99.90
75091;DHT22;63674;48.048;8.306;2023-03-31T14:59:49;6.80;99.90
75091;DHT22;63674;48.048;8.306;2023-03-31T15:02:28;6.70;99.90
75091;DHT22;63674;48.048;8.306;2023-03-31T15:05:01;6.70;99.90
75091;DHT22;63674;48.048;8.306;2023-03-31T15:07:35;6.70;99.90
75091;DHT22;63674;48.048;8.306;2023-03-31T15:10:06;6.70;99.90
75091;DHT22;63674;48.048;8.306;2023-03-31T15:12:35;6.70;99.90
75091;DHT22;63674;48.048;8.306;2023-03-31T15:15:05;6.70;99.90
75091;DHT22;63674;48.048;8.306;2023-03-31T15:17:38;6.80;99.90
75091;DHT22;63674;48.048;8.306;2023-03-31T15:20:27;6.80;99.90
75091;DHT22;63674;48.048;8.306;2023-03-31T15:23:04;6.80;99.90
75091;DHT22;63674;48.048;8.306;2023-03-31T15:25:53;6.90;99.90
75091;DHT22;63674;48.048;8.306;2023-03-31T15:28:26;6.90;99.90
75091;DHT22;63674;48.048;8.306;2023-03-31T15:30:58;6.90;99.90
75091;DHT22;63674;48.048;8.306;2023-03-31T15:33:36;6.90;99.90
75091;DHT22;63674;48.048;8.306;2023-03-31T15:36:29;7.00;99.90
75091;DHT22;63674;48.048;8.306;2023-03-31T15:39:00;7.00;99.90
75091;DHT22;63674;48.048;8.306;2023-03-31T15:41:29;7.10;99.90
75091;DHT22;63674;48.048;8.306;2023-03-31T15:44:04;7.10;99.90
75091;DHT22;63674;48.048;8.306;2023-03-31T15:46:49;7.00;99.90
75091;DHT22;63674;48.048;8.306;2023-03-31T15:49:26;7.00;99.90
75091;DHT22;63674;48.048;8.306;2023-03-31T15:51:55;7.00;99.90
75091;DHT22;63674;48.048;8.306;2023-03-31T15:54:36;7.10;99.90
75091;DHT22;63674;48.048;8.306;2023-03-31T15:57:08;7.10;99.90
75091;DHT22;63674;48.048;8.306;2023-03-31T15:59:44;7.10;99.90
75091;DHT22;63674;48.048;8.306;2023-03-31T16:02:23;7.20;99.90
75091;DHT22;63674;48.048;8.306;2023-03-31T16:04:55;7.30;99.90
75091;DHT22;63674;48.048;8.306;2023-03-31T16:07:27;7.30;99.90
75091;DHT22;63674;48.048;8.306;2023-03-31T16:10:01;7.20;99.90
75091;DHT22;63674;48.048;8.306;2023-03-31T16:12:34;7.30;99.90
75091;DHT22;63674;48.048;8.306;2023-03-31T16:15:07;7.30;99.90
75091;DHT22;63674;48.048;8.306;2023-03-31T16:17:45;7.30;99.90
75091;DHT22;63674;48.048;8.306;2023-03-31T16:20:18;7.30;99.90
75091;DHT22;63674;48.048;8.306;2023-03-31T16:22:53;7.40;99.90
75091;DHT22;63674;48.048;8.306;2023-03-31T16:25:28;7.40;99.90
75091;DHT22;63674;48.048;8.306;2023-03-31T16:27:59;7.30;99.90
75091;DHT22;63674;48.048;8.306;2023-03-31T16:30:34;7.30;99.90
75091;DHT22;63674;48.048;8.306;2023-03-31T16:33:05;7.30;99.90
75091;DHT22;63674;48.048;8.306;2023-03-31T16:35:36;7.30;99.90
75091;DHT22;63674;48.048;8.306;2023-03-31T16:38:07;7.20;99.90
75091;DHT22;63674;48.048;8.306;2023-03-31T16:40:40;7.30;99.90
75091;DHT22;63674;48.048;8.306;2023-03-31T16:43:12;7.20;99.90
75091;DHT22;63674;48.048;8.306;2023-03-31T16:45:44;7.20;99.90
75091;DHT22;63674;48.048;8.306;2023-03-31T16:48:13;7.20;99.90
75091;DHT22;63674;48.048;8.306;2023-03-31T16:50:44;7.20;99.90
75091;DHT22;63674;48.048;8.306;2023-03-31T16:53:14;7.20;99.90